Time;durP1;ratioP1;P1;durP2;ratioP2;P2;SDS_P1;SDS_P2;PMS_P1;PMS_P2;Temp;Humidity;BMP_temperature;BMP_pressure;BME280_temperature;BME280_humidity;BME280_pressure;Samples;Min_cycle;Max_cycle;Signal;HPM_P1;HPM_P2
2022/11/11 00:05:26;;;;;;;52.10;32.20;;;;;;;10.11;69.36;100428.95;227597;1234;139059;-64
2022/11/11 00:10:47;;;;;;;55.40;33.10;;;;;;;10.19;69.34;100434.69;227357;1228;139170;-64
2022/11/11 00:16:18;;;;;;;54.20;34.30;;;;;;;10.23;69.18;100444.66;226740;1238;138591;-62
2022/11/11 00:27:12;;;;;;;55.30;34.90;;;;;;;10.22;69.11;100450.02;226842;1234;138676;-65
2022/11/11 00:32:34;;;;;;;57.10;35.30;;;;;;;10.16;69.00;100458.55;226809;1235;138607;-65
2022/11/11 00:38:05;;;;;;;48.30;31.10;;;;;;;10.12;69.32;100466.16;227484;1234;139115;-65
2022/11/11 00:43:27;;;;;;;47.80;30.50;;;;;;;10.10;68.80;100465.52;226665;1240;139562;-65
2022/11/11 00:54:30;;;;;;;51.40;32.20;;;;;;;10.24;68.90;100461.85;227449;1234;139206;-64
2022/11/11 00:59:51;;;;;;;55.50;33.80;;;;;;;10.27;68.48;100459.41;226669;1233;138759;-65
2022/11/11 01:05:16;;;;;;;54.70;32.90;;;;;;;10.18;68.34;100452.11;226852;1238;138777;-64
2022/11/11 01:10:38;;;;;;;49.50;32.00;;;;;;;10.08;68.30;100445.02;226591;1241;138579;-62
2022/11/11 01:16:03;;;;;;;47.80;30.30;;;;;;;10.01;68.49;100443.67;226452;1237;138146;-61
2022/11/11 01:21:25;;;;;;;47.70;28.40;;;;;;;9.93;68.47;100443.08;226687;1238;139263;-64
2022/11/11 01:26:47;;;;;;;52.20;29.50;;;;;;;9.92;68.76;100438.51;226735;1241;139274;-65
2022/11/11 01:32:08;;;;;;;50.10;29.60;;;;;;;10.00;68.51;100429.73;226681;1239;139093;-65
2022/11/11 01:37:34;;;;;;;48.60;29.50;;;;;;;10.04;68.14;100430.64;226730;1238;138321;-68
2022/11/11 01:43:05;;;;;;;44.40;27.60;;;;;;;9.97;68.13;100434.44;227608;1248;138751;-69
2022/11/11 01:54:43;;;;;;;46.10;27.30;;;;;;;9.84;68.22;100441.30;227456;1227;138355;-66
2022/11/11 02:00:11;;;;;;;43.50;28.20;;;;;;;9.72;68.55;100451.66;227309;1248;138929;-65
2022/11/11 02:05:42;;;;;;;45.50;28.20;;;;;;;9.69;68.45;100452.66;227479;1248;138905;-64
2022/11/11 02:11:09;;;;;;;39.30;25.30;;;;;;;9.68;68.13;100456.73;227460;1235;140192;-67
2022/11/11 02:16:31;;;;;;;44.90;28.00;;;;;;;9.74;68.42;100451.05;226298;1250;138862;-67
2022/11/11 02:22:01;;;;;;;43.90;26.30;;;;;;;9.80;68.02;100454.21;226545;1238;138903;-65
2022/11/11 02:27:25;;;;;;;39.40;25.20;;;;;;;9.84;68.34;100457.40;227497;1231;138782;-64
2022/11/11 02:32:49;;;;;;;39.70;23.60;;;;;;;9.87;67.97;100457.48;226667;1237;139394;-64
2022/11/11 02:38:12;;;;;;;35.20;22.90;;;;;;;9.88;68.07;100463.48;227504;1231;138196;-67
2022/11/11 02:43:34;;;;;;;32.30;21.80;;;;;;;9.88;67.86;100467.76;227609;1233;138606;-64
2022/11/11 02:48:58;;;;;;;35.00;21.20;;;;;;;9.91;67.88;100469.05;227746;1234;138912;-65
2022/11/11 02:54:20;;;;;;;40.40;21.70;;;;;;;9.94;67.87;100478.34;227687;1237;140662;-67
2022/11/11 02:59:42;;;;;;;35.00;21.00;;;;;;;10.05;67.90;100480.24;227666;1245;139016;-66
2022/11/11 03:05:05;;;;;;;33.80;21.50;;;;;;;10.11;67.63;100485.00;226766;1249;139694;-66
2022/11/11 03:10:26;;;;;;;34.10;22.80;;;;;;;10.04;67.48;100481.89;226861;1239;138277;-69
2022/11/11 03:15:48;;;;;;;35.20;23.00;;;;;;;10.04;67.66;100468.06;226848;1249;138633;-69
2022/11/11 03:21:09;;;;;;;36.60;22.50;;;;;;;10.01;67.47;100482.70;226808;1249;138492;-68
2022/11/11 03:26:51;;;;;;;37.80;22.90;;;;;;;9.99;67.58;100476.93;226788;1234;139266;-65
2022/11/11 03:32:13;;;;;;;33.70;21.80;;;;;;;10.02;67.62;100473.08;226707;1250;138656;-65
2022/11/11 03:43:19;;;;;;;31.40;20.60;;;;;;;10.08;67.72;100473.95;226841;1234;140350;-65
2022/11/11 03:48:41;;;;;;;33.70;20.30;;;;;;;10.19;67.48;100470.66;226620;1231;139100;-63
2022/11/11 03:54:02;;;;;;;32.50;20.20;;;;;;;10.32;67.07;100469.35;226738;1249;138637;-64
2022/11/11 03:59:24;;;;;;;31.40;20.90;;;;;;;10.34;67.13;100475.30;227732;1232;138493;-63
2022/11/11 04:10:29;;;;;;;33.00;21.70;;;;;;;10.40;66.60;100478.79;226940;1249;139149;-62
2022/11/11 04:16:05;;;;;;;34.10;21.30;;;;;;;10.40;66.40;100476.33;226779;1241;138585;-63
2022/11/11 04:21:42;;;;;;;32.50;20.60;;;;;;;10.35;66.87;100465.31;226848;1245;139556;-63
2022/11/11 04:27:05;;;;;;;;;;;;;;;10.34;66.61;100458.98;226872;1243;139648;-65
2022/11/11 04:32:37;;;;;;;27.30;18.70;;;;;;;10.32;66.57;100467.38;227780;1236;124712;-65
2022/11/11 04:49:37;;;;;;;32.10;20.50;;;;;;;10.43;66.69;100468.03;226310;1238;139200;-63
2022/11/11 05:00:42;;;;;;;39.00;22.90;;;;;;;10.40;66.25;100480.20;226896;1249;138562;-63
2022/11/11 05:11:45;;;;;;;32.50;21.20;;;;;;;10.34;66.65;100491.44;226884;1249;138726;-62
2022/11/11 05:22:48;;;;;;;33.30;20.60;;;;;;;10.24;66.41;100503.52;226817;1237;139505;-63
2022/11/11 05:28:10;;;;;;;34.00;20.00;;;;;;;10.22;66.47;100509.77;226916;1233;138692;-62
2022/11/11 05:33:32;;;;;;;31.00;19.30;;;;;;;10.27;66.33;100514.94;226761;1241;139170;-62
2022/11/11 05:38:53;;;;;;;33.00;19.90;;;;;;;10.29;66.62;100520.91;226690;1239;140426;-62
2022/11/11 05:44:15;;;;;;;31.10;20.80;;;;;;;10.37;66.47;100515.46;226965;1237;138472;-64
2022/11/11 05:49:36;;;;;;;34.00;20.60;;;;;;;10.42;66.10;100517.75;227740;1241;139362;-66
2022/11/11 05:54:58;;;;;;;34.30;20.70;;;;;;;10.35;66.16;100529.20;226633;1245;140344;-69
2022/11/11 06:00:20;;;;;;;30.60;20.00;;;;;;;10.30;66.09;100543.22;226710;1234;138701;-63
2022/11/11 06:05:41;;;;;;;94.00;67.00;;;;;;;10.30;66.39;100543.23;226762;1248;138574;-62
2022/11/11 06:11:03;;;;;;;35.00;21.10;;;;;;;10.32;67.03;100547.93;226732;1238;141069;-63
2022/11/11 06:16:25;;;;;;;35.00;22.10;;;;;;;10.33;66.79;100551.43;226743;1234;139663;-62
2022/11/11 06:21:59;;;;;;;30.80;19.40;;;;;;;10.34;66.24;100543.95;226518;1244;140084;-63
2022/11/11 06:27:21;;;;;;;29.90;18.10;;;;;;;10.40;66.33;100541.08;226614;1238;140072;-63
2022/11/11 06:32:42;;;;;;;61.90;43.60;;;;;;;10.47;66.56;100545.42;226301;1234;140372;-63
2022/11/11 06:38:06;;;;;;;30.00;19.40;;;;;;;10.56;66.80;100550.77;225983;1245;139659;-62
2022/11/11 06:43:28;;;;;;;28.60;18.50;;;;;;;10.64;66.43;100547.78;225984;1233;139971;-63
2022/11/11 06:48:50;;;;;;;27.60;18.10;;;;;;;10.70;66.11;100539.74;225875;1248;139420;-62
2022/11/11 06:54:11;;;;;;;43.60;33.80;;;;;;;10.73;66.32;100541.59;226030;1248;140401;-62
2022/11/11 06:59:33;;;;;;;31.00;17.10;;;;;;;10.74;66.16;100554.52;226018;1239;139248;-64
2022/11/11 07:04:54;;;;;;;27.20;17.50;;;;;;;10.72;65.87;100548.93;226037;1244;139883;-64
2022/11/11 07:10:16;;;;;;;29.70;19.30;;;;;;;10.76;66.08;100552.84;226013;1234;139453;-67
2022/11/11 07:15:38;;;;;;;30.30;17.50;;;;;;;10.77;66.18;100560.07;225864;1237;140981;-64
2022/11/11 07:21:00;;;;;;;31.10;17.60;;;;;;;10.82;65.58;100550.83;225969;1244;140450;-63
2022/11/11 07:26:22;;;;;;;50.80;32.50;;;;;;;10.90;65.82;100539.16;226705;1242;140732;-65
2022/11/11 07:31:43;;;;;;;33.10;18.80;;;;;;;11.03;66.00;100536.69;226233;1234;139446;-65
2022/11/11 07:37:05;;;;;;;27.30;17.30;;;;;;;11.13;65.46;100533.07;226062;1234;141143;-65
2022/11/11 07:42:27;;;;;;;28.00;17.60;;;;;;;11.18;64.98;100529.90;225997;1236;139649;-65
2022/11/11 07:47:52;;;;;;;24.90;16.50;;;;;;;11.14;65.05;100535.54;226921;1234;139817;-64
2022/11/11 07:53:14;;;;;;;47.20;31.00;;;;;;;11.14;65.29;100534.65;226951;1240;138675;-64
2022/11/11 07:58:35;;;;;;;33.60;19.10;;;;;;;11.19;65.14;100522.74;225979;1233;140142;-64
2022/11/11 08:03:57;;;;;;;30.70;19.70;;;;;;;11.19;65.26;100511.00;226053;1233;139961;-64
2022/11/11 08:09:19;;;;;;;31.10;19.50;;;;;;;11.24;65.57;100509.93;226013;1241;138703;-64
2022/11/11 08:14:40;;;;;;;27.70;17.40;;;;;;;11.30;65.12;100510.02;225878;1234;139413;-64
2022/11/11 08:20:02;;;;;;;24.70;15.70;;;;;;;11.39;65.13;100503.44;226008;1242;138854;-65
2022/11/11 08:25:25;;;;;;;25.10;15.30;;;;;;;11.58;64.51;100514.17;226992;1241;139130;-63
2022/11/11 08:30:47;;;;;;;25.50;16.90;;;;;;;11.73;63.97;100526.34;225977;1249;138798;-67
2022/11/11 08:36:10;;;;;;;25.00;16.20;;;;;;;11.88;63.85;100522.48;226235;1241;139630;-69
2022/11/11 08:41:38;;;;;;;151.20;88.20;;;;;;;12.02;63.18;100527.96;226018;1234;139104;-68
2022/11/11 08:46:59;;;;;;;29.40;16.50;;;;;;;12.16;63.51;100521.43;227531;1241;138335;-66
2022/11/11 08:52:21;;;;;;;22.00;13.90;;;;;;;12.29;62.45;100524.95;226524;1239;139182;-68
2022/11/11 08:57:43;;;;;;;20.20;12.90;;;;;;;12.33;62.05;100538.49;226539;1249;138628;-65
2022/11/11 09:03:08;;;;;;;24.00;13.30;;;;;;;12.39;61.92;100536.25;226479;1249;138757;-66
2022/11/11 09:08:30;;;;;;;165.20;113.50;;;;;;;12.49;62.04;100534.56;226276;1235;139083;-64
2022/11/11 09:13:51;;;;;;;24.30;12.80;;;;;;;12.66;61.86;100523.44;226994;1227;140101;-68
2022/11/11 09:19:13;;;;;;;17.20;12.00;;;;;;;12.77;61.11;100513.98;226971;1241;139794;-65
2022/11/11 09:24:34;;;;;;;22.00;11.60;;;;;;;12.81;60.87;100511.00;225979;1247;139589;-65
2022/11/11 09:29:56;;;;;;;17.50;11.00;;;;;;;12.90;60.71;100525.16;225920;1243;139120;-65
2022/11/11 09:35:18;;;;;;;323.40;258.30;;;;;;;12.98;61.01;100524.42;225886;1234;139760;-67
2022/11/11 09:40:58;;;;;;;20.30;12.50;;;;;;;13.23;61.08;100512.34;226068;1249;139408;-69
2022/11/11 09:46:34;;;;;;;16.40;10.40;;;;;;;13.28;59.60;100518.17;225951;1234;139551;-71
2022/11/11 09:52:13;;;;;;;97.40;62.40;;;;;;;13.29;59.59;100518.30;226015;1236;140116;-68
2022/11/11 09:57:42;;;;;;;16.80;10.20;;;;;;;13.33;59.22;100514.36;225885;1234;139756;-66
2022/11/11 10:03:39;;;;;;;15.50;8.80;;;;;;;13.41;58.86;100520.55;225955;1249;139529;-69
2022/11/11 10:09:16;;;;;;;16.00;9.60;;;;;;;13.45;59.04;100525.14;225896;1249;139240;-67
2022/11/11 10:14:44;;;;;;;13.20;7.90;;;;;;;13.58;59.10;100517.38;226056;1235;138767;-64
2022/11/11 10:20:28;;;;;;;15.30;8.00;;;;;;;13.73;58.80;100503.23;226111;1247;138871;-65
2022/11/11 10:25:55;;;;;;;16.20;7.50;;;;;;;14.00;58.31;100498.64;226088;1234;139175;-60
2022/11/11 10:31:21;;;;;;;16.30;7.40;;;;;;;14.07;58.28;100503.63;226018;1233;139436;-61
2022/11/11 10:36:48;;;;;;;176.10;130.00;;;;;;;14.05;58.17;100500.34;225985;1240;139319;-62
2022/11/11 10:42:16;;;;;;;16.00;9.40;;;;;;;14.02;58.05;100505.10;226023;1248;140754;-62
2022/11/11 10:47:55;;;;;;;15.00;7.60;;;;;;;14.05;57.86;100499.45;226883;1231;138369;-62
2022/11/11 10:53:29;;;;;;;13.00;7.20;;;;;;;14.10;57.69;100495.25;226915;1229;140338;-62
2022/11/11 10:59:08;;;;;;;15.10;7.30;;;;;;;14.09;57.46;100489.05;226901;1227;138681;-62
2022/11/11 11:04:47;;;;;;;13.90;6.00;;;;;;;14.15;57.25;100479.98;226018;1227;138414;-62
2022/11/11 11:10:23;;;;;;;10.30;5.20;;;;;;;14.24;56.54;100471.63;226031;1240;138526;-63
2022/11/11 11:15:52;;;;;;;9.90;5.60;;;;;;;14.36;56.31;100460.26;226012;1249;139061;-65
2022/11/11 11:21:14;;;;;;;12.70;5.00;;;;;;;14.50;55.94;100461.50;226100;1238;138363;-66
2022/11/11 11:26:50;;;;;;;11.00;5.60;;;;;;;14.59;55.63;100462.07;226044;1245;139193;-66
2022/11/11 11:32:20;;;;;;;13.10;5.70;;;;;;;14.71;54.99;100455.51;226225;1233;139229;-63
2022/11/11 11:37:49;;;;;;;12.60;6.10;;;;;;;14.82;54.62;100440.78;226999;1234;139598;-63
2022/11/11 11:43:33;;;;;;;13.20;6.40;;;;;;;14.84;53.90;100430.84;225929;1238;139244;-64
2022/11/11 11:49:16;;;;;;;12.20;6.40;;;;;;;14.77;53.62;100446.58;225864;1241;139016;-64
2022/11/11 11:54:49;;;;;;;14.80;6.50;;;;;;;14.68;53.52;100452.48;226086;1241;139210;-64
2022/11/11 12:00:19;;;;;;;119.50;79.00;;;;;;;14.63;53.64;100452.55;226052;1241;138909;-63
2022/11/11 12:05:50;;;;;;;20.70;9.80;;;;;;;14.59;54.27;100452.23;226115;1241;140651;-64
2022/11/11 12:11:24;;;;;;;14.80;7.40;;;;;;;14.59;54.13;100454.02;226031;1249;138795;-64
2022/11/11 12:16:53;;;;;;;17.10;7.40;;;;;;;14.58;54.28;100455.00;225974;1248;139347;-64
2022/11/11 12:23:03;;;;;;;14.90;7.20;;;;;;;14.54;54.57;100444.14;226046;1239;138678;-65
2022/11/11 12:28:37;;;;;;;17.50;7.60;;;;;;;14.50;54.81;100424.89;226144;1234;139701;-64
2022/11/11 12:34:31;;;;;;;95.50;74.30;;;;;;;14.52;55.29;100430.85;225824;1248;139331;-63
2022/11/11 12:40:11;;;;;;;45.50;16.20;;;;;;;14.53;55.81;100430.63;226781;1241;139039;-61
2022/11/11 12:45:45;;;;;;;14.60;6.10;;;;;;;14.56;55.51;100437.96;225923;1249;139755;-65
2022/11/11 12:51:32;;;;;;;16.10;6.10;;;;;;;14.50;55.45;100437.38;226846;1241;139569;-64
2022/11/11 12:56:59;;;;;;;14.00;6.00;;;;;;;14.49;55.42;100427.05;226796;1234;138840;-63
2022/11/11 13:02:43;;;;;;;13.00;4.80;;;;;;;14.47;55.55;100418.96;226907;1227;139142;-64
2022/11/11 13:08:21;;;;;;;32.90;23.70;;;;;;;14.42;55.59;100410.27;226039;1242;138693;-65
2022/11/11 13:14:07;;;;;;;12.10;5.00;;;;;;;14.44;55.60;100407.66;226118;1240;138739;-65
2022/11/11 13:19:47;;;;;;;12.00;5.30;;;;;;;14.45;55.72;100406.56;226231;1234;139227;-63
2022/11/11 13:25:16;;;;;;;9.10;4.30;;;;;;;14.48;55.51;100408.75;226148;1235;138637;-64
2022/11/11 13:30:51;;;;;;;10.90;4.90;;;;;;;14.47;55.38;100408.05;226089;1244;138770;-63
2022/11/11 13:36:20;;;;;;;10.90;4.40;;;;;;;14.47;55.23;100397.38;226810;1234;139233;-65
2022/11/11 13:41:49;;;;;;;71.10;51.10;;;;;;;14.45;55.40;100386.77;225978;1235;138542;-64
2022/11/11 13:47:18;;;;;;;14.60;5.60;;;;;;;14.40;55.40;100395.41;225959;1250;138422;-64
2022/11/11 13:52:58;;;;;;;11.70;5.30;;;;;;;14.33;55.55;100391.88;226329;1237;139258;-64
2022/11/11 13:58:28;;;;;;;11.70;4.80;;;;;;;14.31;55.87;100389.31;226343;1234;138683;-65
2022/11/11 14:03:50;;;;;;;13.10;5.50;;;;;;;14.29;55.95;100393.14;227027;1231;138600;-65
2022/11/11 14:09:50;;;;;;;11.50;5.30;;;;;;;14.27;56.32;100396.85;226023;1238;138751;-63
2022/11/11 14:15:51;;;;;;;14.10;5.60;;;;;;;14.28;56.30;100411.10;226405;1241;139282;-63
2022/11/11 14:21:41;;;;;;;16.80;6.20;;;;;;;14.24;56.60;100422.19;225586;1248;138325;-63
2022/11/11 14:27:08;;;;;;;12.80;6.10;;;;;;;14.22;56.65;100414.82;225989;1238;138806;-64
2022/11/11 14:32:50;;;;;;;13.00;5.30;;;;;;;14.18;56.82;100417.18;226332;1247;139092;-62
2022/11/11 14:38:49;;;;;;;13.70;5.90;;;;;;;14.15;56.93;100422.52;227149;1242;138799;-63
2022/11/11 14:44:26;;;;;;;12.70;6.00;;;;;;;14.11;57.06;100425.56;226554;1234;140035;-62
2022/11/11 14:49:53;;;;;;;17.40;8.50;;;;;;;14.13;58.00;100424.20;226449;1234;139747;-62
2022/11/11 14:55:28;;;;;;;11.30;5.70;;;;;;;14.13;57.37;100418.14;226045;1251;138427;-62
2022/11/11 15:01:03;;;;;;;18.20;6.40;;;;;;;14.06;57.44;100431.36;226246;1245;138843;-62
2022/11/11 15:06:42;;;;;;;13.10;6.10;;;;;;;14.02;57.37;100435.15;226968;1249;139555;-63
2022/11/11 15:12:24;;;;;;;12.40;5.50;;;;;;;14.00;57.44;100437.27;227112;1243;139055;-63
2022/11/11 15:17:48;;;;;;;11.10;6.30;;;;;;;13.97;57.45;100437.77;227060;1235;138745;-63
2022/11/11 15:23:25;;;;;;;12.00;5.40;;;;;;;13.92;57.33;100429.95;227020;1238;138545;-62
2022/11/11 15:29:09;;;;;;;10.60;5.20;;;;;;;13.85;57.48;100425.70;227053;1241;138200;-63
2022/11/11 15:34:44;;;;;;;9.10;4.60;;;;;;;13.76;57.60;100427.45;226292;1244;138286;-62
2022/11/11 15:40:07;;;;;;;16.30;5.00;;;;;;;13.70;57.74;100435.06;226513;1241;138624;-64
2022/11/11 15:45:34;;;;;;;14.20;5.80;;;;;;;13.64;57.87;100438.09;226958;1252;138883;-63
2022/11/11 15:50:55;;;;;;;11.10;5.70;;;;;;;13.58;58.06;100438.19;226958;1238;138159;-63
2022/11/11 15:56:28;;;;;;;15.70;6.50;;;;;;;13.52;58.17;100444.75;227231;1238;139215;-63
2022/11/11 16:01:53;;;;;;;15.10;6.80;;;;;;;13.44;58.39;100453.71;227162;1239;138813;-63
2022/11/11 16:07:20;;;;;;;13.50;7.00;;;;;;;13.40;58.55;100455.36;226905;1249;139526;-63
2022/11/11 16:13:05;;;;;;;53.30;33.10;;;;;;;13.36;58.79;100456.45;227894;1230;138758;-65
2022/11/11 16:18:32;;;;;;;19.90;7.90;;;;;;;13.35;58.83;100443.67;227092;1250;140230;-65
2022/11/11 16:23:55;;;;;;;17.30;7.80;;;;;;;13.31;58.68;100448.36;227854;1241;139673;-65
2022/11/11 16:29:18;;;;;;;19.30;8.00;;;;;;;13.25;58.64;100444.87;227070;1225;139117;-65
2022/11/11 16:34:42;;;;;;;91.10;70.80;;;;;;;13.23;58.66;100443.73;227064;1234;140387;-64
2022/11/11 16:40:26;;;;;;;19.60;8.70;;;;;;;13.24;59.50;100453.84;227051;1238;139173;-63
2022/11/11 16:46:08;;;;;;;15.30;8.50;;;;;;;13.20;59.12;100452.96;227041;1247;139865;-64
2022/11/11 16:51:43;;;;;;;22.50;9.50;;;;;;;13.15;59.13;100455.17;227037;1240;138369;-64
2022/11/11 16:57:05;;;;;;;18.60;9.90;;;;;;;13.11;59.31;100459.48;227063;1250;138785;-64
2022/11/11 17:02:27;;;;;;;32.30;18.70;;;;;;;13.10;59.38;100457.58;227106;1238;138626;-66
2022/11/11 17:07:49;;;;;;;23.40;10.60;;;;;;;13.06;59.45;100456.16;227937;1248;138783;-63
2022/11/11 17:13:10;;;;;;;20.80;9.90;;;;;;;13.02;59.59;100457.02;226975;1241;138609;-64
2022/11/11 17:18:37;;;;;;;17.60;9.80;;;;;;;12.98;59.71;100458.66;227139;1240;138955;-64
2022/11/11 17:23:58;;;;;;;23.70;11.00;;;;;;;12.92;59.75;100453.48;227036;1233;139405;-63
2022/11/11 17:29:20;;;;;;;20.70;11.10;;;;;;;12.87;59.90;100451.73;227104;1238;139270;-63
2022/11/11 17:34:42;;;;;;;19.40;11.40;;;;;;;12.80;60.01;100453.66;226986;1238;138832;-64
2022/11/11 17:40:05;;;;;;;21.20;12.20;;;;;;;12.75;60.36;100448.93;227090;1249;138499;-64
2022/11/11 17:45:27;;;;;;;24.80;12.30;;;;;;;12.69;60.45;100453.69;227087;1241;139282;-63
2022/11/11 17:50:49;;;;;;;179.20;129.90;;;;;;;12.63;61.02;100452.17;227911;1246;138438;-63
2022/11/11 17:56:10;;;;;;;26.70;14.20;;;;;;;12.66;61.11;100452.73;227284;1244;139113;-66
2022/11/11 18:01:32;;;;;;;23.10;12.70;;;;;;;12.60;60.79;100458.58;227007;1237;139099;-67
2022/11/11 18:06:54;;;;;;;26.50;12.90;;;;;;;12.53;60.84;100463.14;226943;1242;139014;-66
2022/11/11 18:12:16;;;;;;;21.70;13.50;;;;;;;12.48;60.78;100459.12;227098;1253;138606;-66
2022/11/11 18:17:38;;;;;;;20.50;11.80;;;;;;;12.43;61.31;100462.21;227192;1237;140052;-66
2022/11/11 18:23:00;;;;;;;23.80;14.60;;;;;;;12.37;62.10;100462.13;227054;1247;139934;-66
2022/11/11 18:28:21;;;;;;;27.60;14.20;;;;;;;12.37;61.62;100466.06;227076;1249;139540;-64
2022/11/11 18:33:46;;;;;;;24.70;14.90;;;;;;;12.32;61.58;100474.47;227005;1238;139132;-66
2022/11/11 18:39:07;;;;;;;27.00;14.60;;;;;;;12.28;61.77;100480.49;227051;1238;138467;-66
2022/11/11 18:44:29;;;;;;;26.70;16.00;;;;;;;12.29;61.62;100482.23;227179;1241;138797;-66
2022/11/11 18:49:51;;;;;;;27.20;15.40;;;;;;;12.26;61.51;100485.58;227738;1234;138486;-65
2022/11/11 18:55:12;;;;;;;25.10;15.50;;;;;;;12.16;61.81;100495.27;227853;1231;138612;-65
2022/11/11 19:00:34;;;;;;;32.70;19.10;;;;;;;12.13;62.67;100486.55;227049;1241;138992;-63
2022/11/11 19:06:06;;;;;;;30.10;17.00;;;;;;;12.13;62.01;100487.99;227000;1234;138638;-64
2022/11/11 19:11:29;;;;;;;28.20;17.20;;;;;;;12.02;62.11;100492.21;227023;1238;139074;-64
2022/11/11 19:16:51;;;;;;;30.40;19.00;;;;;;;11.94;62.13;100496.25;227017;1238;138389;-63
2022/11/11 19:22:14;;;;;;;29.90;17.80;;;;;;;11.90;62.21;100498.05;227095;1234;138425;-64
2022/11/11 19:27:36;;;;;;;32.60;18.30;;;;;;;11.89;62.58;100501.86;227075;1238;138787;-65
2022/11/11 19:32:58;;;;;;;31.50;17.20;;;;;;;11.82;62.33;100502.85;227894;1242;138660;-66
2022/11/11 19:38:20;;;;;;;200.50;124.60;;;;;;;11.82;62.64;100501.76;227140;1249;139948;-65
2022/11/11 19:43:42;;;;;;;33.10;17.80;;;;;;;11.86;62.82;100516.21;227873;1234;139744;-65
2022/11/11 19:49:04;;;;;;;30.20;17.00;;;;;;;11.88;62.44;100512.56;227093;1249;138311;-66
2022/11/11 19:54:25;;;;;;;25.90;16.60;;;;;;;11.92;62.76;100516.98;227029;1241;138823;-66
2022/11/11 19:59:47;;;;;;;26.50;16.30;;;;;;;11.94;62.60;100513.02;227132;1248;138586;-66
2022/11/11 20:05:09;;;;;;;29.30;16.60;;;;;;;11.92;62.32;100510.43;227139;1249;138516;-66
2022/11/11 20:10:43;;;;;;;29.60;16.50;;;;;;;11.85;62.61;100506.61;227009;1238;138640;-66
2022/11/11 20:16:05;;;;;;;29.40;16.60;;;;;;;11.75;62.73;100504.20;227110;1233;138791;-64
2022/11/11 20:21:27;;;;;;;31.30;16.90;;;;;;;11.69;62.61;100497.16;227051;1238;138984;-64
2022/11/11 20:26:48;;;;;;;36.20;26.10;;;;;;;11.67;62.81;100497.45;227093;1230;139617;-63
2022/11/11 20:32:13;;;;;;;26.00;16.80;;;;;;;11.61;63.26;100492.88;227988;1231;139237;-64
2022/11/11 20:37:35;;;;;;;26.40;15.90;;;;;;;11.51;63.08;100496.67;227111;1235;139421;-64
2022/11/11 20:43:00;;;;;;;28.10;16.20;;;;;;;11.42;63.34;100500.27;227109;1249;140504;-64
2022/11/11 20:48:21;;;;;;;31.00;17.60;;;;;;;11.38;63.55;100500.07;227056;1234;140003;-63
2022/11/11 20:53:43;;;;;;;27.60;17.60;;;;;;;11.40;63.30;100503.36;227117;1241;138752;-64
2022/11/11 20:59:05;;;;;;;24.10;15.90;;;;;;;11.44;63.66;100505.85;227083;1240;138609;-64
2022/11/11 21:04:26;;;;;;;25.80;15.70;;;;;;;11.44;63.40;100507.48;227113;1237;138659;-64
2022/11/11 21:09:48;;;;;;;25.40;15.50;;;;;;;11.41;63.23;100511.51;227931;1242;138757;-64
2022/11/11 21:15:10;;;;;;;27.00;15.70;;;;;;;11.38;63.17;100508.96;227103;1242;139176;-64
2022/11/11 21:20:31;;;;;;;27.40;14.50;;;;;;;11.35;63.31;100504.27;228079;1239;139691;-65
2022/11/11 21:26:00;;;;;;;26.60;15.20;;;;;;;11.31;63.31;100508.90;227138;1249;138496;-65
2022/11/11 21:31:27;;;;;;;26.30;15.40;;;;;;;11.27;63.14;100522.58;227096;1248;138619;-65
2022/11/11 21:36:49;;;;;;;23.70;15.00;;;;;;;11.25;63.24;100519.97;227099;1234;138593;-65
2022/11/11 21:42:11;;;;;;;25.30;14.50;;;;;;;11.26;63.27;100520.11;227144;1233;138962;-65
2022/11/11 21:47:32;;;;;;;26.50;13.80;;;;;;;11.22;63.20;100522.42;227051;1237;139267;-65
2022/11/11 21:52:54;;;;;;;24.80;14.10;;;;;;;11.11;63.54;100530.85;227131;1233;139230;-65
2022/11/11 21:58:15;;;;;;;23.90;14.10;;;;;;;11.09;63.60;100534.14;227176;1241;140251;-65
2022/11/11 22:03:39;;;;;;;32.60;16.00;;;;;;;11.21;63.56;100534.02;227158;1227;139447;-64
2022/11/11 22:09:02;;;;;;;29.80;17.80;;;;;;;11.34;63.42;100534.55;227045;1249;139396;-64
2022/11/11 22:14:23;;;;;;;25.70;15.60;;;;;;;11.42;63.29;100541.49;227228;1238;138888;-64
2022/11/11 22:19:45;;;;;;;23.00;14.50;;;;;;;11.50;62.89;100543.11;227125;1249;140255;-64
2022/11/11 22:25:07;;;;;;;26.30;14.30;;;;;;;11.46;62.48;100535.83;227109;1245;139618;-65
2022/11/11 22:30:28;;;;;;;27.00;14.60;;;;;;;11.34;62.59;100531.15;227097;1237;139300;-64
2022/11/11 22:35:50;;;;;;;21.70;14.10;;;;;;;11.26;62.76;100529.70;227123;1240;139128;-64
2022/11/11 22:41:24;;;;;;;25.40;14.40;;;;;;;11.19;62.88;100524.69;227096;1247;139373;-65
2022/11/11 22:46:46;;;;;;;23.10;14.30;;;;;;;11.14;63.31;100533.60;227902;1228;138733;-62
2022/11/11 22:52:07;;;;;;;25.20;13.70;;;;;;;11.08;63.04;100540.40;227107;1243;138540;-63
2022/11/11 22:57:30;;;;;;;23.20;14.10;;;;;;;11.02;63.61;100535.13;227957;1241;138697;-63
2022/11/11 23:02:51;;;;;;;23.20;14.70;;;;;;;10.99;63.48;100528.48;227226;1249;139284;-64
2022/11/11 23:08:13;;;;;;;24.50;14.10;;;;;;;11.00;63.63;100523.33;227992;1226;138900;-64
2022/11/11 23:13:36;;;;;;;26.00;13.20;;;;;;;10.98;63.70;100527.64;227146;1240;139377;-64
2022/11/11 23:18:59;;;;;;;26.50;15.10;;;;;;;11.02;63.59;100534.25;227138;1238;138943;-64
2022/11/11 23:24:21;;;;;;;24.50;14.60;;;;;;;11.02;64.03;100530.67;227128;1240;138898;-64
2022/11/11 23:29:42;;;;;;;28.30;15.20;;;;;;;11.11;63.52;100531.73;227139;1241;138650;-64
2022/11/11 23:35:10;;;;;;;26.60;15.30;;;;;;;11.03;63.57;100526.54;227155;1233;138907;-64
2022/11/11 23:40:31;;;;;;;28.80;15.30;;;;;;;11.05;63.45;100521.50;227152;1237;138499;-64
2022/11/11 23:45:54;;;;;;;22.60;14.00;;;;;;;11.07;63.38;100523.91;227012;1234;139224;-63
2022/11/11 23:51:18;;;;;;;24.40;13.60;;;;;;;11.04;63.52;100528.84;226929;1249;139003;-64
2022/11/11 23:56:39;;;;;;;26.10;14.60;;;;;;;10.96;63.76;100532.71;226987;1242;140161;-64
